x

St. Augustine, Fl (sauf1) Weather Station

10:00am - Sat 26th Jul 2014 All times are EDT. -4 hours from GMT.

  • Wind
    6mph, 8mph gusts
  • Air Temp 84°f
  • Sea Pressure 1019.7mb
  • St. Augustine, Fl
  • St. Augustine, Fl

More Historic Weather Station data

Upgrade to MSW Pro to gain access to the past 30 days of data for over 8000 Wavebouys and Weather Stations around the globe.

Join Pro

Comparision Forecast

View Surf forecast
   
Sat 07/26 10:00am 6 8 mph 1019.7mb 84f
9:00am 6 7 mph 1019.5mb 82f
8:00am 5 7 mph 1019.2mb 78f
7:00am 6 8 mph 1018.6mb 75f
6:00am 7 8 mph 1018.1mb 75f
5:00am 6 7 mph 1017.8mb 75f
4:00am 8 9 mph 1017.3mb 75f
3:00am 7 8 mph 1017.5mb 76f
2:00am 7 9 mph 1018.3mb 75f
1:00am 8 9 mph 1019.2mb 76f
12:00am 11 13 mph 1019mb 75f
Fri 07/25 11:00pm 8 10 mph 1018.9mb 75f
10:00pm 11 13 mph 1017.6mb 75f
9:00pm 9 11 mph 1018.1mb 76f
8:00pm 10 11 mph 1018mb 77f
7:00pm 13 14 mph 1017.8mb 76f
6:00pm 6 7 mph 1017.5mb 76f
5:00pm 11 14 mph 1017.6mb 77f
4:00pm 7 8 mph 1017.7mb 80f
3:00pm 2 3 mph 1018.9mb 78f
2:00pm 13 14 mph 1018.9mb 81f
1:00pm 10 13 mph 1019mb 84f
12:00pm 3 7 mph 1019.1mb 89f
11:00am 7 8 mph 1019.2mb 87f
10:00am 6 7 mph 1019.1mb 85f
9:00am 3 5 mph 1019mb 84f
8:00am 3 5 mph 1019.1mb 81f
7:00am 5 6 mph 1018.4mb 76f
6:00am 6 7 mph 1017.9mb 77f
5:00am 6 7 mph 1017.1mb 77f
4:00am 6 8 mph 1016.8mb 78f
3:00am 6 7 mph 1017.1mb 78f
2:00am 6 7 mph 1017.2mb 79f
1:00am 5 6 mph 1017.3mb 80f
12:00am 6 7 mph 1017.5mb 80f
Thu 07/24 11:00pm 7 8 mph 1017.2mb 81f
10:00pm 9 10 mph 1016.4mb 82f
9:00pm 10 13 mph 1015.8mb 84f
8:00pm 15 16 mph 1015.5mb 84f
7:00pm 22 24 mph 1015.3mb 84f
6:00pm 17 18 mph 1014.9mb 84f
5:00pm 17 20 mph 1015.1mb 84f
4:00pm 15 16 mph 1015.8mb 84f
3:00pm 11 15 mph 1016.6mb 85f
2:00pm 3 6 mph 1017.2mb 89f
1:00pm 5 10 mph 1017.8mb 88f
12:00pm 8 10 mph 1018.2mb 87f
11:00am 6 8 mph 1018.4mb 85f
10:00am 8 10 mph 1018.3mb 81f
9:00am 8 10 mph 1018.3mb 81f
8:00am 3 5 mph 1017.8mb 80f
7:00am 2 3 mph 1017.4mb 77f
6:00am 2 3 mph 1017.2mb 77f
5:00am 3 5 mph 1016.6mb 77f
4:00am 3 5 mph 1016.6mb 78f
3:00am 6
mph
1016.7mb 78f
2:00am 6 7 mph 1017.2mb 79f
1:00am 8 10 mph 1017.2mb 80f
12:00am 10 13 mph 1017.3mb 81f
Wed 07/23 11:00pm 11 13 mph 1017.5mb 82f
10:00pm 15 16 mph 1017mb 83f
9:00pm 11 14 mph 1016.8mb 83f
8:00pm 17 18 mph 1016.7mb 83f
7:00pm 16 17 mph 1016.7mb 83f
6:00pm 13 14 mph 1016.8mb 83f
5:00pm 15 16 mph 1017.6mb 83f
4:00pm 11 13 mph 1018.1mb 83f
3:00pm 10 11 mph 1018.5mb 82f
2:00pm 9 10 mph 1019.1mb 82f
1:00pm 9
mph
1019.3mb 82f
12:00pm 5 6 mph 1019.6mb 82f
11:00am 5
mph
1019.6mb 83f
10:00am 5 7 mph 1019.8mb 82f
9:00am 2 3 mph 1019.5mb 83f
8:00am 2 3 mph 1019.2mb 80f
7:00am 3
mph
1018.5mb 76f
6:00am 5 6 mph 1018.1mb 77f
5:00am 3 5 mph 1017.9mb 77f
4:00am 3
mph
1017.9mb 78f
3:00am 3 5 mph 1018mb 78f
2:00am 3 5 mph 1018.4mb 79f
1:00am 5 6 mph 1019mb 80f
12:00am 6 7 mph 1019mb 82f
Tue 07/22 11:00pm 8 9 mph 1018.9mb 82f
10:00pm 11 13 mph 1018.4mb 82f
9:00pm 5 6 mph 1018.7mb 82f
8:00pm 9 10 mph 1018.6mb 82f
7:00pm 10 11 mph 1017.9mb 82f
6:00pm 11 13 mph 1018.5mb 82f
5:00pm 13 15 mph 1018.3mb 82f
4:00pm 10 11 mph 1018.3mb 81f